createdAt,value
2023-01-10T00:03:19.540Z,75.08
2023-01-10T00:08:19.424Z,74.46
2023-01-10T00:20:23.304Z,74.22
2023-01-10T00:25:23.097Z,73.61
2023-01-10T00:30:22.902Z,73.47
2023-01-10T00:35:22.782Z,72.96
2023-01-10T00:40:22.801Z,73.16
2023-01-10T00:45:22.689Z,71.89
2023-01-10T00:50:22.907Z,73.54
2023-01-10T00:55:22.602Z,73.64
2023-01-10T01:00:22.583Z,74.46
2023-01-10T01:05:22.586Z,74.60
2023-01-10T01:10:25.579Z,74.08
2023-01-10T01:15:22.450Z,75.70
2023-01-10T01:20:22.283Z,74.16
2023-01-10T01:25:22.258Z,78.08
2023-01-10T01:30:22.345Z,78.87
2023-01-10T01:35:22.235Z,78.94
2023-01-10T01:40:22.075Z,80.43
2023-01-10T01:45:22.015Z,80.57
2023-01-10T01:50:22.023Z,80.57
2023-01-10T01:55:21.853Z,80.29
2023-01-10T02:00:21.733Z,80.67
2023-01-10T02:05:22.183Z,80.22
2023-01-10T02:10:24.662Z,78.74
2023-01-10T02:15:21.836Z,79.53
2023-01-10T02:20:21.679Z,80.60
2023-01-10T02:25:21.904Z,81.37
2023-01-10T02:45:36.756Z,82.15
2023-01-10T02:50:36.815Z,80.94
2023-01-10T02:55:36.675Z,81.64
2023-01-10T03:00:36.720Z,81.43
2023-01-10T03:05:36.719Z,79.56
2023-01-10T03:10:36.479Z,80.22
2023-01-10T03:15:36.334Z,80.49
2023-01-10T03:20:36.342Z,78.73
2023-01-10T03:25:36.374Z,78.49
2023-01-10T03:30:36.093Z,78.28
2023-01-10T03:35:40.289Z,77.83
2023-01-10T03:40:36.160Z,76.04
2023-01-10T03:45:35.984Z,76.42
2023-01-10T03:50:36.174Z,75.77
2023-01-10T03:55:36.145Z,74.29
2023-01-10T04:00:35.827Z,74.36
2023-01-10T04:05:35.825Z,75.63
2023-01-10T04:10:36.083Z,75.32
2023-01-10T04:15:35.634Z,74.43
2023-01-10T04:20:35.540Z,74.87
2023-01-10T04:25:35.782Z,74.67
2023-01-10T04:32:15.169Z,72.34
2023-01-10T04:41:13.772Z,73.88
2023-01-10T04:46:13.426Z,73.27
2023-01-10T04:51:13.050Z,73.78
2023-01-10T04:56:13.009Z,73.40
2023-01-10T05:01:12.923Z,72.92
2023-01-10T05:06:12.903Z,72.65
2023-01-10T05:13:17.523Z,73.30
2023-01-10T05:18:17.378Z,73.68
2023-01-10T05:23:17.462Z,73.91
2023-01-10T05:28:17.479Z,72.92
2023-01-10T05:33:17.143Z,72.17
2023-01-10T05:38:17.167Z,73.13
2023-01-10T05:43:17.090Z,73.95
2023-01-10T05:48:17.048Z,73.23
2023-01-10T05:53:17.261Z,73.47
2023-01-10T05:58:16.915Z,73.44
2023-01-10T06:03:19.928Z,73.36
2023-01-10T06:08:16.849Z,74.63
2023-01-10T06:13:24.899Z,72.58
2023-01-10T06:20:09.382Z,72.06
2023-01-10T06:25:09.113Z,72.72
2023-01-10T06:30:09.215Z,72.82
2023-01-10T06:35:09.308Z,72.48
2023-01-10T06:40:09.943Z,71.89
2023-01-10T06:45:08.846Z,72.68
2023-01-10T06:50:12.764Z,72.78
2023-01-10T06:57:58.063Z,73.47
2023-01-10T07:02:58.663Z,73.61
2023-01-10T07:07:58.968Z,74.02
2023-01-10T07:12:58.491Z,73.68
2023-01-10T07:17:57.693Z,74.50
2023-01-10T07:23:04.058Z,76.50
2023-01-10T07:27:58.370Z,76.84
2023-01-10T07:32:57.286Z,75.46
2023-01-10T07:37:57.157Z,74.77
2023-01-10T07:42:57.379Z,74.43
2023-01-10T07:48:00.268Z,75.67
2023-01-10T07:53:08.323Z,75.91
2023-01-10T07:57:56.959Z,73.43
2023-01-10T08:02:57.084Z,72.68
2023-01-10T08:07:56.774Z,71.17
2023-01-10T08:12:59.593Z,71.14
2023-01-10T08:17:57.575Z,70.62
2023-01-10T08:22:56.899Z,70.39
2023-01-10T08:27:56.509Z,69.09
2023-01-10T08:33:01.015Z,69.09
2023-01-10T08:37:56.337Z,68.68
2023-01-10T08:42:56.364Z,68.54
2023-01-10T08:48:00.009Z,67.55
2023-01-10T08:52:56.310Z,67.96
2023-01-10T08:57:56.175Z,66.39
2023-01-10T09:16:53.521Z,66.12
2023-01-10T09:25:36.871Z,65.64
2023-01-10T09:32:49.036Z,64.59
2023-01-10T09:39:07.959Z,62.96
2023-01-10T09:44:08.463Z,63.29
2023-01-10T09:49:08.208Z,62.55
2023-01-10T09:54:12.505Z,62.96
2023-01-10T09:59:08.907Z,63.54
2023-01-10T10:04:08.046Z,63.84
2023-01-10T10:09:07.655Z,63.76
2023-01-10T10:14:07.588Z,61.91
2023-01-10T10:19:07.535Z,60.99
2023-01-10T10:24:07.591Z,61.29
2023-01-10T10:29:10.351Z,61.19
2023-01-10T10:34:07.212Z,60.78
2023-01-10T10:39:07.360Z,60.36
2023-01-10T10:44:07.236Z,59.39
2023-01-10T10:49:07.119Z,60.21
2023-01-10T10:54:07.228Z,58.75
2023-01-10T10:59:07.089Z,58.65
2023-01-10T11:04:06.973Z,58.55
2023-01-10T11:09:06.941Z,58.81
2023-01-10T11:14:06.847Z,59.50
2023-01-10T11:19:06.879Z,58.98
2023-01-10T11:24:06.556Z,58.89
2023-01-10T11:29:09.607Z,59.53
2023-01-10T11:34:06.449Z,61.32
2023-01-10T11:39:06.616Z,60.65
2023-01-10T11:44:06.426Z,60.11
2023-01-10T11:49:08.163Z,60.28
2023-01-10T11:54:06.336Z,59.16
2023-01-10T11:59:06.195Z,59.27
2023-01-10T12:04:06.067Z,59.57
2023-01-10T12:09:06.174Z,60.37
2023-01-10T12:14:05.857Z,60.52
2023-01-10T12:19:06.124Z,60.03
2023-01-10T12:24:05.684Z,58.55
2023-01-10T12:29:08.998Z,59.91
2023-01-10T12:34:05.681Z,61.16
2023-01-10T12:39:05.680Z,58.98
2023-01-10T12:44:05.481Z,60.14
2023-01-10T12:49:05.632Z,60.35
2023-01-10T12:54:05.269Z,61.29
2023-01-10T12:59:05.544Z,61.67
2023-01-10T13:04:05.230Z,60.21
2023-01-10T13:09:05.131Z,61.52
2023-01-10T13:14:05.055Z,61.40
2023-01-10T13:19:13.708Z,60.24
2023-01-10T13:24:04.871Z,62.17
2023-01-10T13:29:08.025Z,62.04
2023-01-10T13:34:04.791Z,62.37
2023-01-10T13:39:04.733Z,60.78
2023-01-10T13:44:04.757Z,60.21
2023-01-10T13:49:04.734Z,60.21
2023-01-10T13:54:04.497Z,61.09
2023-01-10T13:59:04.456Z,61.22
2023-01-10T14:04:04.565Z,60.37
2023-01-10T14:09:11.839Z,60.99
2023-01-10T14:14:11.218Z,59.30
2023-01-10T14:19:13.222Z,59.45
2023-01-10T14:24:04.255Z,61.63
2023-01-10T14:29:07.196Z,61.73
2023-01-10T14:34:03.990Z,63.43
2023-01-10T14:39:04.057Z,62.17
2023-01-10T14:44:03.796Z,61.45
2023-01-10T14:49:03.971Z,62.10
2023-01-10T14:54:03.809Z,62.40
2023-01-10T14:59:03.789Z,63.22
2023-01-10T15:04:03.576Z,63.87
2023-01-10T15:09:03.840Z,63.22
2023-01-10T15:14:03.468Z,64.92
2023-01-10T15:19:03.515Z,64.10
2023-01-10T15:24:03.311Z,64.31
2023-01-10T15:29:06.600Z,64.13
2023-01-10T15:34:03.418Z,64.51
2023-01-10T15:39:03.123Z,64.92
2023-01-10T15:44:03.163Z,64.54
2023-01-10T15:49:03.176Z,66.04
2023-01-10T15:54:03.060Z,64.10
2023-01-10T15:59:02.872Z,65.03
2023-01-10T16:04:11.179Z,63.22
2023-01-10T16:09:02.774Z,65.29
2023-01-10T16:14:02.722Z,65.39
2023-01-10T16:19:02.982Z,64.64
2023-01-10T16:24:02.600Z,64.67
2023-01-10T16:29:05.611Z,65.29
2023-01-10T16:34:02.414Z,64.78
2023-01-10T16:39:03.192Z,65.73
2023-01-10T16:44:02.787Z,65.42
2023-01-10T16:49:02.399Z,66.51
2023-01-10T16:54:10.366Z,65.32
2023-01-10T16:59:03.345Z,66.85
2023-01-10T17:04:02.145Z,67.71
2023-01-10T17:09:02.002Z,67.26
2023-01-10T17:14:01.886Z,69.04
2023-01-10T17:19:01.780Z,67.60
2023-01-10T17:24:01.808Z,68.53
2023-01-10T17:29:04.805Z,68.77
2023-01-10T17:34:01.763Z,70.48
2023-01-10T17:39:02.090Z,68.66
2023-01-10T17:44:01.489Z,69.55
2023-01-10T17:49:01.435Z,68.98
2023-01-10T17:54:01.508Z,67.74
2023-01-10T17:59:01.345Z,69.18
2023-01-10T18:04:01.275Z,68.56
2023-01-10T18:09:01.148Z,68.59
2023-01-10T18:14:01.072Z,68.70
2023-01-10T18:19:01.043Z,69.96
2023-01-10T18:24:01.069Z,70.31
2023-01-10T18:29:04.357Z,68.29
2023-01-10T18:34:01.087Z,69.59
2023-01-10T18:39:00.839Z,68.59
2023-01-10T18:44:00.746Z,67.74
2023-01-10T18:50:18.404Z,67.53
2023-01-10T18:55:18.329Z,68.08
2023-01-10T19:00:18.228Z,68.93
2023-01-10T19:05:18.881Z,69.38
2023-01-10T19:10:25.866Z,68.73
2023-01-10T19:16:56.979Z,68.21
2023-01-10T19:30:12.897Z,68.86
2023-01-10T19:36:32.275Z,68.62
2023-01-10T19:41:32.100Z,70.13
2023-01-10T19:46:33.745Z,68.32
2023-01-10T19:51:31.934Z,69.48
2023-01-10T19:56:31.825Z,68.32
2023-01-10T20:01:32.120Z,68.83
2023-01-10T20:06:31.798Z,68.32
2023-01-10T20:11:31.685Z,68.18
2023-01-10T20:18:08.250Z,67.87
2023-01-10T20:23:09.061Z,68.42
2023-01-10T20:28:08.095Z,68.66
2023-01-10T20:33:07.910Z,67.93
2023-01-10T20:38:07.941Z,67.46
2023-01-10T20:43:07.871Z,66.30
2023-01-10T20:48:07.830Z,67.49
2023-01-10T20:53:07.658Z,67.05
2023-01-10T20:58:07.516Z,67.15
2023-01-10T21:03:07.497Z,67.36
2023-01-10T21:08:17.987Z,65.44
2023-01-10T21:13:14.918Z,67.39
2023-01-10T21:18:07.298Z,67.12
2023-01-10T21:24:25.923Z,66.94
2023-01-10T21:29:33.380Z,65.89
2023-01-10T21:34:33.331Z,65.65
2023-01-10T21:39:25.600Z,66.43
2023-01-10T21:44:25.579Z,66.84
2023-01-10T21:49:33.117Z,65.23
2023-01-10T21:54:25.467Z,65.89
2023-01-10T21:59:26.492Z,66.64
2023-01-10T22:04:25.267Z,66.61
2023-01-10T22:09:25.342Z,66.71
2023-01-10T22:14:28.190Z,66.81
2023-01-10T22:19:25.111Z,67.05
2023-01-10T22:24:27.450Z,66.84
2023-01-10T22:29:25.068Z,68.46
2023-01-10T22:34:24.993Z,68.35
2023-01-10T22:39:24.804Z,68.46
2023-01-10T22:44:33.369Z,67.84
2023-01-10T22:49:32.326Z,67.50
2023-01-10T22:54:24.848Z,67.81
2023-01-10T22:59:24.692Z,66.88
2023-01-10T23:04:24.560Z,66.27
2023-01-10T23:09:24.535Z,65.11
2023-01-10T23:14:34.947Z,65.11
2023-01-10T23:19:31.339Z,66.96
2023-01-10T23:24:24.396Z,69.22
2023-01-10T23:29:24.206Z,69.76
2023-01-10T23:34:24.222Z,69.42
2023-01-10T23:39:24.011Z,69.87
2023-01-10T23:44:24.057Z,70.69
2023-01-10T23:49:23.921Z,71.62
2023-01-10T23:54:23.935Z,71.69
2023-01-10T23:59:23.767Z,73.13
